createdAt,value
2023-04-18T00:01:02.999Z,62.22
2023-04-18T00:03:29.942Z,61.57
2023-04-18T00:05:58.020Z,61.89
2023-04-18T00:08:24.604Z,61.74
2023-04-18T00:10:51.088Z,59.86
2023-04-18T00:13:18.596Z,60.82
2023-04-18T00:15:46.317Z,61.52
2023-04-18T00:18:15.892Z,60.81
2023-04-18T00:20:42.504Z,60.97
2023-04-18T00:23:09.353Z,62.49
2023-04-18T00:25:36.338Z,62.14
2023-04-18T00:28:02.824Z,62.23
2023-04-18T00:30:29.365Z,61.74
2023-04-18T00:32:56.164Z,61.50
2023-04-18T00:35:24.991Z,62.24
2023-04-18T00:37:51.897Z,62.69
2023-04-18T00:40:18.445Z,62.93
2023-04-18T00:42:44.909Z,61.47
2023-04-18T00:45:13.819Z,61.51
2023-04-18T00:47:40.450Z,62.91
2023-04-18T00:50:07.941Z,61.33
2023-04-18T00:52:35.850Z,62.56
2023-04-18T00:55:06.633Z,62.67
2023-04-18T00:57:33.456Z,64.42
2023-04-18T01:00:00.972Z,62.77
2023-04-18T01:02:32.027Z,63.36
2023-04-18T01:04:58.664Z,62.73
2023-04-18T01:07:26.489Z,63.37
2023-04-18T01:09:56.638Z,64.08
2023-04-18T01:12:23.131Z,63.41
2023-04-18T01:14:49.610Z,64.22
2023-04-18T01:17:16.302Z,64.07
2023-04-18T01:19:44.444Z,64.46
2023-04-18T01:22:13.288Z,65.03
2023-04-18T01:24:40.981Z,65.43
2023-04-18T01:27:11.256Z,65.37
2023-04-18T01:29:39.002Z,64.61
2023-04-18T01:32:06.012Z,63.95
2023-04-18T01:34:32.448Z,63.39
2023-04-18T01:36:59.297Z,64.24
2023-04-18T01:39:25.792Z,64.79
2023-04-18T01:41:52.310Z,65.56
2023-04-18T01:44:18.804Z,65.39
2023-04-18T01:46:46.042Z,65.88
2023-04-18T01:49:12.784Z,65.16
2023-04-18T01:51:39.481Z,66.21
2023-04-18T01:54:06.148Z,66.19
2023-04-18T01:56:32.682Z,66.91
2023-04-18T01:59:00.778Z,65.89
2023-04-18T02:01:27.922Z,66.09
2023-04-18T02:03:54.582Z,66.11
2023-04-18T02:06:21.225Z,66.84
2023-04-18T02:08:47.856Z,66.09
2023-04-18T02:11:14.349Z,66.48
2023-04-18T02:13:41.212Z,66.23
2023-04-18T02:16:12.060Z,65.80
2023-04-18T02:18:40.099Z,63.62
2023-04-18T02:21:07.160Z,61.00
2023-04-18T02:23:33.690Z,62.23
2023-04-18T02:26:00.213Z,64.16
2023-04-18T02:28:26.674Z,66.74
2023-04-18T02:30:54.161Z,68.24
2023-04-18T02:33:20.697Z,66.86
2023-04-18T02:35:47.188Z,69.01
2023-04-18T02:38:15.822Z,69.41
2023-04-18T02:40:42.399Z,70.43
2023-04-18T02:43:09.016Z,70.08
2023-04-18T02:45:35.623Z,68.61
2023-04-18T02:48:02.770Z,69.72
2023-04-18T02:50:30.942Z,70.55
2023-04-18T02:52:58.093Z,70.56
2023-04-18T02:55:32.557Z,70.75
2023-04-18T02:58:00.392Z,70.35
2023-04-18T03:00:36.176Z,69.27
2023-04-18T03:03:22.919Z,68.56
2023-04-18T03:05:57.209Z,71.08
2023-04-18T03:08:23.908Z,71.69
2023-04-18T03:10:50.608Z,71.62
2023-04-18T03:13:21.074Z,71.52
2023-04-18T03:15:47.937Z,71.82
2023-04-18T03:18:14.708Z,72.45
2023-04-18T03:20:42.280Z,73.60
2023-04-18T03:23:08.937Z,74.95
2023-04-18T03:25:35.580Z,75.31
2023-04-18T03:28:03.071Z,75.85
2023-04-18T03:30:29.767Z,75.56
2023-04-18T03:32:59.424Z,75.32
2023-04-18T03:35:25.988Z,75.31
2023-04-18T03:37:52.626Z,75.71
2023-04-18T03:40:24.048Z,74.61
2023-04-18T03:42:53.266Z,76.04
2023-04-18T03:45:20.271Z,76.91
2023-04-18T03:47:47.354Z,77.43
2023-04-18T03:50:15.212Z,77.67
2023-04-18T03:52:43.146Z,77.57
2023-04-18T03:55:09.818Z,78.68
2023-04-18T03:57:37.044Z,78.90
2023-04-18T04:00:08.113Z,78.80
2023-04-18T04:02:42.230Z,79.00
2023-04-18T04:05:11.480Z,79.53
2023-04-18T04:07:38.417Z,79.79
2023-04-18T04:10:06.057Z,80.41
2023-04-18T04:12:32.599Z,80.47
2023-04-18T04:14:59.288Z,79.50
2023-04-18T04:17:26.175Z,78.98
2023-04-18T04:19:53.144Z,78.32
2023-04-18T04:22:20.992Z,78.18
2023-04-18T04:24:47.913Z,77.71
2023-04-18T04:27:18.919Z,78.07
2023-04-18T04:29:46.382Z,78.91
2023-04-18T04:32:13.570Z,79.68
2023-04-18T04:34:41.637Z,79.75
2023-04-18T04:37:10.552Z,80.88
2023-04-18T04:39:46.555Z,80.77
2023-04-18T04:42:28.459Z,81.02
2023-04-18T04:45:03.611Z,79.48
2023-04-18T04:47:30.348Z,79.63
2023-04-18T04:49:56.832Z,80.18
2023-04-18T04:52:23.291Z,78.78
2023-04-18T04:54:50.734Z,79.77
2023-04-18T04:57:19.046Z,80.55
2023-04-18T04:59:45.662Z,80.04
2023-04-18T05:02:12.436Z,79.30
2023-04-18T05:04:39.295Z,77.03
2023-04-18T05:07:05.874Z,76.68
2023-04-18T05:09:32.416Z,76.09
2023-04-18T05:11:58.881Z,77.17
2023-04-18T05:14:25.915Z,76.11
2023-04-18T05:16:52.489Z,75.86
2023-04-18T05:19:18.953Z,75.20
2023-04-18T05:21:45.454Z,74.96
2023-04-18T05:24:12.046Z,73.73
2023-04-18T05:26:38.642Z,74.09
2023-04-18T05:29:05.429Z,73.41
2023-04-18T05:31:32.302Z,74.61
2023-04-18T05:33:58.874Z,74.70
2023-04-18T05:36:25.365Z,74.31
2023-04-18T05:38:51.821Z,73.64
2023-04-18T05:41:18.303Z,71.60
2023-04-18T05:43:51.135Z,72.37
2023-04-18T05:46:28.804Z,71.65
2023-04-18T05:48:55.425Z,72.11
2023-04-18T05:51:21.941Z,70.52
2023-04-18T05:53:48.418Z,68.94
2023-04-18T05:56:14.947Z,67.08
2023-04-18T05:58:41.408Z,67.50
2023-04-18T06:01:08.989Z,66.33
2023-04-18T06:03:35.687Z,66.47
2023-04-18T06:06:02.578Z,64.54
2023-04-18T06:08:29.197Z,63.64
2023-04-18T06:10:55.668Z,62.42
2023-04-18T06:13:22.126Z,61.58
2023-04-18T06:15:48.744Z,59.94
2023-04-18T06:18:15.336Z,61.01
2023-04-18T06:20:43.896Z,60.14
2023-04-18T06:23:10.359Z,57.96
2023-04-18T06:25:36.854Z,57.50
2023-04-18T06:28:03.318Z,57.00
2023-04-18T06:30:29.918Z,57.75
2023-04-18T06:32:56.442Z,56.85
2023-04-18T06:35:24.607Z,56.77
2023-04-18T06:37:52.905Z,56.26
2023-04-18T06:40:19.468Z,55.65
2023-04-18T06:42:46.297Z,53.54
2023-04-18T06:45:12.745Z,54.39
2023-04-18T06:47:40.134Z,54.84
2023-04-18T06:50:07.565Z,54.58
2023-04-18T06:52:35.414Z,53.98
2023-04-18T06:55:01.973Z,54.16
2023-04-18T06:57:28.448Z,53.66
2023-04-18T06:59:54.943Z,52.60
2023-04-18T07:02:21.539Z,52.50
2023-04-18T07:04:48.115Z,52.23
2023-04-18T07:07:14.609Z,51.58
2023-04-18T07:09:41.059Z,52.22
2023-04-18T07:12:07.606Z,50.63
2023-04-18T07:14:34.441Z,50.27
2023-04-18T07:17:01.599Z,48.65
2023-04-18T07:19:28.162Z,48.52
2023-04-18T07:21:55.916Z,48.72
2023-04-18T07:24:23.630Z,49.13
2023-04-18T07:26:52.042Z,49.11
2023-04-18T07:29:19.613Z,46.85
2023-04-18T07:31:46.306Z,48.25
2023-04-18T07:34:14.083Z,48.30
2023-04-18T07:36:40.736Z,47.78
2023-04-18T07:39:07.633Z,46.72
2023-04-18T07:41:34.423Z,47.07
2023-04-18T07:44:01.575Z,46.70
2023-04-18T07:46:28.238Z,47.01
2023-04-18T07:48:54.912Z,47.36
2023-04-18T07:51:21.888Z,46.30
2023-04-18T07:53:48.313Z,45.91
2023-04-18T07:56:14.988Z,46.90
2023-04-18T07:58:41.500Z,46.04
2023-04-18T08:01:08.974Z,45.57
2023-04-18T08:03:37.115Z,44.78
2023-04-18T08:06:03.842Z,45.17
2023-04-18T08:08:30.368Z,45.94
2023-04-18T08:10:56.881Z,46.87
2023-04-18T08:13:23.378Z,52.14
2023-04-18T08:15:49.885Z,50.35
2023-04-18T08:18:16.379Z,50.34
2023-04-18T08:20:42.871Z,50.20
2023-04-18T08:23:11.423Z,50.05
2023-04-18T08:25:39.665Z,52.09
2023-04-18T08:28:06.346Z,52.09
2023-04-18T08:30:32.865Z,53.29
2023-04-18T08:33:00.152Z,53.89
2023-04-18T08:35:26.863Z,54.73
2023-04-18T08:37:53.430Z,54.42
2023-04-18T08:40:20.550Z,54.80
2023-04-18T08:42:47.086Z,55.81
2023-04-18T08:45:14.181Z,57.36
2023-04-18T08:47:41.328Z,57.85
2023-04-18T08:50:09.253Z,61.76
2023-04-18T08:52:36.351Z,62.24
2023-04-18T08:55:03.814Z,61.90
2023-04-18T08:57:31.290Z,62.16
2023-04-18T09:00:00.669Z,61.46
2023-04-18T09:02:38.901Z,60.91
2023-04-18T09:05:11.846Z,60.94
2023-04-18T09:07:38.413Z,60.28
2023-04-18T09:10:05.027Z,59.86
2023-04-18T09:12:32.671Z,60.55
2023-04-18T09:15:14.102Z,59.86
2023-04-18T09:17:42.484Z,59.21
2023-04-18T09:20:12.991Z,59.85
2023-04-18T09:22:46.122Z,59.04
2023-04-18T09:25:23.805Z,56.62
2023-04-18T09:27:50.345Z,56.12
2023-04-18T09:30:29.012Z,53.90
2023-04-18T09:33:00.286Z,56.49
2023-04-18T09:35:27.234Z,56.66
2023-04-18T09:37:53.672Z,56.31
2023-04-18T09:40:20.357Z,57.11
2023-04-18T09:42:48.109Z,55.48
2023-04-18T09:45:15.486Z,55.15
2023-04-18T09:47:42.064Z,57.10
2023-04-18T09:50:09.424Z,56.78
2023-04-18T09:52:37.553Z,57.81
2023-04-18T09:55:05.370Z,56.79
2023-04-18T09:57:32.836Z,57.56
2023-04-18T10:00:02.370Z,56.94
2023-04-18T10:02:35.296Z,57.19
2023-04-18T10:05:04.333Z,57.88
2023-04-18T10:07:31.444Z,58.25
2023-04-18T10:09:57.905Z,58.19
2023-04-18T10:12:24.730Z,58.23
2023-04-18T10:14:51.359Z,58.42
2023-04-18T10:17:19.761Z,58.65
2023-04-18T10:19:47.501Z,59.38
2023-04-18T10:22:13.998Z,60.13
2023-04-18T10:24:49.726Z,58.80
2023-04-18T10:27:17.102Z,57.66
2023-04-18T10:29:48.222Z,55.42
2023-04-18T10:32:14.989Z,56.81
2023-04-18T10:34:41.473Z,57.42
2023-04-18T10:37:07.966Z,58.51
2023-04-18T10:39:53.088Z,59.43
2023-04-18T10:42:19.792Z,55.54
2023-04-18T10:45:06.217Z,57.01
2023-04-18T10:47:32.865Z,57.07
2023-04-18T10:50:01.568Z,60.62
2023-04-18T10:52:28.350Z,61.48
2023-04-18T10:55:21.262Z,63.83
2023-04-18T10:57:48.718Z,62.94
2023-04-18T11:00:16.635Z,64.64
2023-04-18T11:02:50.535Z,63.66
2023-04-18T11:05:21.464Z,64.98
2023-04-18T11:07:51.146Z,65.58
2023-04-18T11:10:19.901Z,66.21
2023-04-18T11:12:46.614Z,66.75
2023-04-18T11:15:17.239Z,65.62
2023-04-18T11:17:44.130Z,66.84
2023-04-18T11:20:12.788Z,65.60
2023-04-18T11:22:48.768Z,66.05
2023-04-18T11:25:16.356Z,66.22
2023-04-18T11:27:47.012Z,66.14
2023-04-18T11:30:14.463Z,65.84
2023-04-18T11:32:41.162Z,66.15
2023-04-18T11:35:11.996Z,65.89
2023-04-18T11:37:39.096Z,64.57
2023-04-18T11:40:09.074Z,64.92
2023-04-18T11:42:36.222Z,65.14
2023-04-18T11:45:03.178Z,65.60
2023-04-18T11:47:31.620Z,62.53
2023-04-18T11:49:58.204Z,63.78
2023-04-18T11:52:26.132Z,61.06
2023-04-18T11:54:52.866Z,62.84
2023-04-18T11:57:19.356Z,63.22
2023-04-18T11:59:50.075Z,62.03
2023-04-18T12:02:17.254Z,62.05
2023-04-18T12:04:52.018Z,60.08
2023-04-18T12:07:36.090Z,60.10
2023-04-18T12:10:03.962Z,60.19
2023-04-18T12:12:30.543Z,60.84
2023-04-18T12:15:00.758Z,62.84
2023-04-18T12:17:27.677Z,64.55
2023-04-18T12:19:55.415Z,65.09
2023-04-18T12:22:57.823Z,67.04
2023-04-18T12:25:29.087Z,64.68
2023-04-18T12:27:58.622Z,65.75
2023-04-18T12:30:29.561Z,64.55
2023-04-18T12:32:56.935Z,67.28
2023-04-18T12:35:24.070Z,67.98
2023-04-18T12:37:51.904Z,68.16
2023-04-18T12:40:22.839Z,67.71
2023-04-18T12:42:50.141Z,66.72
2023-04-18T12:45:17.290Z,65.92
2023-04-18T12:47:44.797Z,64.67
2023-04-18T12:50:15.021Z,64.46
2023-04-18T12:52:42.278Z,63.33
2023-04-18T12:55:09.524Z,63.64
2023-04-18T12:57:36.357Z,62.10
2023-04-18T13:00:06.373Z,61.39
2023-04-18T13:02:37.224Z,61.72
2023-04-18T13:05:07.644Z,60.39
2023-04-18T13:07:34.224Z,57.86
2023-04-18T13:10:01.003Z,58.75
2023-04-18T13:12:29.288Z,61.10
2023-04-18T13:14:56.174Z,60.71
2023-04-18T13:17:22.777Z,62.21
2023-04-18T13:19:49.299Z,61.10
2023-04-18T13:22:15.763Z,60.36
2023-04-18T13:24:42.279Z,60.63
2023-04-18T13:27:10.554Z,61.15
2023-04-18T13:29:38.568Z,60.29
2023-04-18T13:32:06.095Z,60.24
2023-04-18T13:34:34.387Z,60.86
2023-04-18T13:37:01.377Z,60.65
2023-04-18T13:39:27.917Z,60.64
2023-04-18T13:41:54.927Z,59.14
2023-04-18T13:44:21.482Z,59.42
2023-04-18T13:46:48.086Z,57.28
2023-04-18T13:49:14.780Z,57.12
2023-04-18T13:51:41.365Z,57.04
2023-04-18T13:54:07.890Z,55.90
2023-04-18T13:56:34.436Z,55.65
2023-04-18T13:59:00.913Z,56.09
2023-04-18T14:01:27.846Z,57.82
2023-04-18T14:03:54.692Z,60.66
2023-04-18T14:06:21.226Z,61.67
2023-04-18T14:08:48.969Z,61.48
2023-04-18T14:11:16.119Z,60.35
2023-04-18T14:13:44.557Z,57.97
2023-04-18T14:16:11.172Z,56.77
2023-04-18T14:18:38.117Z,57.21
2023-04-18T14:21:04.708Z,57.90
2023-04-18T14:23:31.156Z,59.24
2023-04-18T14:25:57.768Z,58.24
2023-04-18T14:28:25.293Z,58.62
2023-04-18T14:30:52.054Z,57.98
2023-04-18T14:33:18.624Z,58.35
2023-04-18T14:35:45.702Z,57.71
2023-04-18T14:38:12.254Z,59.05
2023-04-18T14:40:38.777Z,59.46
2023-04-18T14:43:05.310Z,59.29
2023-04-18T14:45:32.797Z,58.48
2023-04-18T14:47:59.632Z,59.12
2023-04-18T14:50:26.785Z,61.22
2023-04-18T14:52:53.292Z,60.67
2023-04-18T14:55:20.252Z,60.24
2023-04-18T14:57:47.031Z,61.86
2023-04-18T15:00:14.611Z,61.16
2023-04-18T15:02:41.797Z,60.33
2023-04-18T15:05:08.836Z,64.15
2023-04-18T15:07:37.423Z,65.03
2023-04-18T15:10:07.557Z,66.82
2023-04-18T15:12:34.056Z,63.66
2023-04-18T15:15:00.618Z,64.34
2023-04-18T15:17:27.698Z,63.89
2023-04-18T15:19:54.310Z,65.02
2023-04-18T15:22:20.736Z,62.77
2023-04-18T15:24:47.467Z,63.83
2023-04-18T15:27:13.976Z,61.77
2023-04-18T15:29:40.963Z,62.79
2023-04-18T15:32:07.858Z,63.93
2023-04-18T15:34:34.457Z,63.95
2023-04-18T15:37:00.928Z,65.98
2023-04-18T15:39:27.447Z,66.69
2023-04-18T15:41:57.157Z,67.21
2023-04-18T15:44:23.719Z,68.16
2023-04-18T15:46:50.910Z,71.87
2023-04-18T15:49:17.413Z,74.81
2023-04-18T15:51:44.118Z,75.58
2023-04-18T15:54:10.612Z,76.22
2023-04-18T15:56:37.196Z,75.57
2023-04-18T15:59:05.017Z,76.26
2023-04-18T16:01:32.265Z,78.10
2023-04-18T16:03:59.002Z,79.13
2023-04-18T16:06:26.605Z,78.47
2023-04-18T16:08:53.145Z,75.69
2023-04-18T16:11:19.731Z,78.37
2023-04-18T16:13:46.153Z,77.92
2023-04-18T16:16:12.672Z,79.29
2023-04-18T16:18:39.360Z,80.59
2023-04-18T16:21:06.041Z,82.36
2023-04-18T16:23:32.663Z,84.63
2023-04-18T16:25:59.143Z,83.91
2023-04-18T16:28:25.736Z,85.13
2023-04-18T16:30:55.381Z,85.77
2023-04-18T16:33:25.769Z,86.05
2023-04-18T16:35:53.019Z,86.26
2023-04-18T16:38:19.573Z,85.19
2023-04-18T16:40:46.031Z,84.65
2023-04-18T16:43:12.527Z,85.24
2023-04-18T16:45:38.965Z,85.51
2023-04-18T16:48:05.533Z,86.49
2023-04-18T16:50:32.044Z,90.26
2023-04-18T16:52:58.518Z,92.05
2023-04-18T16:55:26.348Z,93.15
2023-04-18T16:57:52.805Z,93.95
2023-04-18T17:00:19.296Z,94.48
2023-04-18T17:02:45.893Z,94.63
2023-04-18T17:05:12.623Z,95.04
2023-04-18T17:07:39.069Z,95.01
2023-04-18T17:10:06.368Z,96.26
2023-04-18T17:12:33.086Z,96.01
2023-04-18T17:14:59.577Z,96.65
2023-04-18T17:17:26.335Z,96.73
2023-04-18T17:19:52.882Z,96.74
2023-04-18T17:22:19.368Z,96.42
2023-04-18T17:24:45.842Z,96.05
2023-04-18T17:27:12.490Z,96.32
2023-04-18T17:29:39.064Z,96.96
2023-04-18T17:32:05.708Z,96.16
2023-04-18T17:34:32.334Z,96.23
2023-04-18T17:36:58.847Z,96.35
2023-04-18T17:39:25.476Z,96.74
2023-04-18T17:41:52.046Z,96.73
2023-04-18T17:44:18.529Z,96.97
2023-04-18T17:46:45.012Z,95.42
2023-04-18T17:49:11.871Z,94.59
2023-04-18T17:51:38.404Z,93.61
2023-04-18T17:54:05.397Z,90.10
2023-04-18T17:56:31.840Z,87.52
2023-04-18T17:58:58.375Z,85.92
2023-04-18T18:01:26.158Z,85.70
2023-04-18T18:03:53.705Z,84.93
2023-04-18T18:06:20.586Z,84.53
2023-04-18T18:08:47.124Z,84.94
2023-04-18T18:11:13.594Z,84.65
2023-04-18T18:13:40.187Z,83.15
2023-04-18T18:16:07.617Z,83.76
2023-04-18T18:18:34.224Z,83.70
2023-04-18T18:21:00.768Z,84.61
2023-04-18T18:23:27.346Z,86.14
2023-04-18T18:25:53.859Z,85.28
2023-04-18T18:28:20.375Z,86.65
2023-04-18T18:30:46.851Z,85.17
2023-04-18T18:33:13.799Z,85.01
2023-04-18T18:35:40.501Z,84.66
2023-04-18T18:38:07.182Z,84.66
2023-04-18T18:40:34.171Z,85.11
2023-04-18T18:43:00.710Z,85.09
2023-04-18T18:45:27.243Z,85.62
2023-04-18T18:47:53.786Z,86.96
2023-04-18T18:50:20.350Z,87.27
2023-04-18T18:52:46.903Z,84.51
2023-04-18T18:55:13.468Z,87.50
2023-04-18T18:57:40.003Z,86.30
2023-04-18T19:00:09.828Z,88.38
2023-04-18T19:02:36.794Z,88.85
2023-04-18T19:05:03.952Z,90.11
2023-04-18T19:07:30.720Z,87.82
2023-04-18T19:09:57.234Z,88.43
2023-04-18T19:12:23.705Z,88.38
2023-04-18T19:14:50.169Z,87.26
2023-04-18T19:17:21.921Z,87.48
2023-04-18T19:19:48.485Z,87.89
2023-04-18T19:22:14.945Z,86.27
2023-04-18T19:24:41.440Z,88.89
2023-04-18T19:27:08.207Z,88.47
2023-04-18T19:29:37.704Z,88.34
2023-04-18T19:32:04.344Z,89.73
2023-04-18T19:34:31.266Z,92.21
2023-04-18T19:36:57.732Z,89.11
2023-04-18T19:39:24.169Z,89.03
2023-04-18T19:41:50.602Z,88.80
2023-04-18T19:44:17.116Z,89.61
2023-04-18T19:46:43.605Z,89.70
2023-04-18T19:49:10.210Z,89.50
2023-04-18T19:51:37.237Z,89.50
2023-04-18T19:54:04.781Z,88.47
2023-04-18T19:56:31.643Z,87.70
2023-04-18T19:58:58.364Z,87.71
2023-04-18T20:01:25.738Z,87.16
2023-04-18T20:03:53.435Z,88.03
2023-04-18T20:06:20.283Z,87.88
2023-04-18T20:08:46.800Z,87.07
2023-04-18T20:11:16.418Z,87.41
2023-04-18T20:13:42.912Z,87.81
2023-04-18T20:16:09.475Z,86.51
2023-04-18T20:18:40.128Z,85.88
2023-04-18T20:21:07.538Z,85.93
2023-04-18T20:23:34.448Z,84.12
2023-04-18T20:26:00.962Z,83.89
2023-04-18T20:28:27.477Z,82.75
2023-04-18T20:30:54.016Z,82.30
2023-04-18T20:33:20.830Z,82.73
2023-04-18T20:35:47.293Z,81.38
2023-04-18T20:38:14.357Z,81.68
2023-04-18T20:40:44.958Z,82.32
2023-04-18T20:43:13.492Z,82.08
2023-04-18T20:45:42.868Z,82.84
2023-04-18T20:48:09.673Z,78.12
2023-04-18T20:50:36.119Z,80.66
2023-04-18T20:53:03.977Z,81.01
2023-04-18T20:55:30.544Z,80.59
2023-04-18T20:57:57.372Z,80.56
2023-04-18T21:00:23.986Z,81.27
2023-04-18T21:02:50.522Z,80.34
2023-04-18T21:05:17.083Z,80.24
2023-04-18T21:07:44.703Z,79.23
2023-04-18T21:10:12.269Z,78.33
2023-04-18T21:12:38.711Z,78.68
2023-04-18T21:15:05.596Z,78.71
2023-04-18T21:17:32.189Z,78.07
2023-04-18T21:19:58.875Z,77.78
2023-04-18T21:22:25.556Z,76.74
2023-04-18T21:24:52.174Z,77.02
2023-04-18T21:27:18.793Z,76.69
2023-04-18T21:29:45.280Z,76.25
2023-04-18T21:32:11.820Z,75.99
2023-04-18T21:34:38.276Z,76.40
2023-04-18T21:37:04.763Z,74.96
2023-04-18T21:39:31.291Z,75.19
2023-04-18T21:41:58.084Z,75.07
2023-04-18T21:44:24.830Z,74.63
2023-04-18T21:46:51.365Z,75.48
2023-04-18T21:49:17.837Z,74.66
2023-04-18T21:51:44.957Z,73.32
2023-04-18T21:54:11.532Z,73.72
2023-04-18T21:56:38.007Z,74.63
2023-04-18T21:59:04.475Z,74.33
2023-04-18T22:01:31.116Z,74.14
2023-04-18T22:03:57.767Z,74.12
2023-04-18T22:06:24.458Z,75.57
2023-04-18T22:08:51.609Z,75.07
2023-04-18T22:11:18.703Z,74.70
2023-04-18T22:13:45.833Z,76.04
2023-04-18T22:16:12.419Z,76.23
2023-04-18T22:18:38.915Z,76.16
2023-04-18T22:21:06.065Z,74.44
2023-04-18T22:23:32.563Z,74.77
2023-04-18T22:25:59.277Z,79.31
2023-04-18T22:28:27.799Z,82.94
2023-04-18T22:30:54.382Z,84.43
2023-04-18T22:33:20.907Z,84.99
2023-04-18T22:35:47.968Z,85.75
2023-04-18T22:38:14.489Z,86.73
2023-04-18T22:40:40.955Z,88.25
2023-04-18T22:43:07.509Z,87.83
2023-04-18T22:45:34.644Z,84.31
2023-04-18T22:48:01.264Z,89.40
2023-04-18T22:50:27.814Z,89.75
2023-04-18T22:52:54.252Z,90.27
2023-04-18T22:55:20.746Z,89.69
2023-04-18T22:57:47.213Z,84.84
2023-04-18T23:00:14.427Z,86.41
2023-04-18T23:02:41.495Z,85.80
2023-04-18T23:05:08.952Z,83.10
2023-04-18T23:07:35.489Z,88.13
2023-04-18T23:10:04.018Z,89.75
2023-04-18T23:12:30.612Z,91.30
2023-04-18T23:14:57.240Z,93.12
2023-04-18T23:17:23.823Z,94.16
2023-04-18T23:19:50.407Z,94.25
2023-04-18T23:22:17.058Z,94.32
2023-04-18T23:24:43.613Z,94.55
2023-04-18T23:27:10.197Z,93.78
2023-04-18T23:29:37.803Z,93.70
2023-04-18T23:32:04.888Z,93.43
2023-04-18T23:34:32.001Z,91.82
2023-04-18T23:36:58.538Z,92.17
2023-04-18T23:39:28.135Z,91.87
2023-04-18T23:41:54.776Z,90.07
2023-04-18T23:44:21.449Z,89.71
2023-04-18T23:46:48.260Z,88.87
2023-04-18T23:49:15.131Z,89.04
2023-04-18T23:51:41.619Z,89.08
2023-04-18T23:54:08.088Z,88.84
2023-04-18T23:56:34.941Z,89.10
2023-04-18T23:59:01.626Z,88.89
